createdAt,value
2023-02-01T00:01:33.265Z,89.67
2023-02-01T00:04:01.687Z,90.43
2023-02-01T00:06:30.200Z,89.88
2023-02-01T00:08:58.873Z,91.10
2023-02-01T00:11:27.435Z,88.85
2023-02-01T00:13:56.165Z,90.93
2023-02-01T00:16:28.856Z,89.18
2023-02-01T00:19:01.683Z,85.90
2023-02-01T00:21:31.299Z,88.80
2023-02-01T00:24:00.498Z,88.65
2023-02-01T00:26:34.116Z,93.72
2023-02-01T00:29:03.081Z,91.50
2023-02-01T00:31:33.161Z,93.20
2023-02-01T00:34:01.763Z,93.88
2023-02-01T00:36:30.980Z,93.38
2023-02-01T00:38:59.636Z,97.00
2023-02-01T00:41:28.829Z,99.68
2023-02-01T00:43:57.372Z,97.43
2023-02-01T00:46:26.303Z,98.68
2023-02-01T00:48:56.778Z,96.93
2023-02-01T00:51:27.191Z,95.88
2023-02-01T00:53:56.174Z,93.23
2023-02-01T00:56:25.073Z,89.75
2023-02-01T00:58:53.578Z,92.65
2023-02-01T01:01:24.640Z,87.55
2023-02-01T01:03:56.910Z,91.95
2023-02-01T01:06:28.325Z,87.65
2023-02-01T01:08:58.155Z,90.20
2023-02-01T01:11:29.967Z,92.10
2023-02-01T01:14:00.854Z,93.90
2023-02-01T01:16:31.596Z,90.78
2023-02-01T01:19:02.467Z,92.05
2023-02-01T01:21:31.113Z,88.82
2023-02-01T01:24:00.338Z,87.45
2023-02-01T01:26:31.576Z,87.03
2023-02-01T01:29:01.543Z,89.85
2023-02-01T01:31:30.831Z,95.72
2023-02-01T01:34:01.989Z,91.25
2023-02-01T01:36:31.633Z,98.38
2023-02-01T01:39:00.296Z,90.38
2023-02-01T01:41:33.738Z,97.43
2023-02-01T01:44:04.013Z,96.03
2023-02-01T01:46:35.724Z,97.28
2023-02-01T01:49:10.401Z,93.45
2023-02-01T01:51:42.857Z,99.60
2023-02-01T01:54:17.244Z,97.35
2023-02-01T01:56:48.521Z,98.73
2023-02-01T01:59:17.411Z,100.95
2023-02-01T02:01:46.694Z,97.78
2023-02-01T02:04:16.779Z,96.28
2023-02-01T02:06:50.805Z,103.90
2023-02-01T02:09:19.271Z,100.10
2023-02-01T02:11:47.779Z,98.05
2023-02-01T02:14:19.267Z,98.90
2023-02-01T02:17:16.609Z,99.47
2023-02-01T02:20:38.096Z,99.53
2023-02-01T02:24:12.668Z,100.75
2023-02-01T02:27:03.267Z,99.32
2023-02-01T02:30:28.135Z,99.78
2023-02-01T02:33:43.481Z,97.72
2023-02-01T02:36:22.378Z,101.87
2023-02-01T02:38:59.985Z,101.68
2023-02-01T02:41:52.570Z,100.75
2023-02-01T02:44:54.063Z,96.07
2023-02-01T02:47:29.411Z,101.47
2023-02-01T02:50:34.968Z,104.40
2023-02-01T02:53:36.225Z,101.07
2023-02-01T02:56:25.077Z,98.28
2023-02-01T02:59:12.404Z,101.25
2023-02-01T03:01:59.676Z,100.67
2023-02-01T03:04:28.192Z,97.28
2023-02-01T03:06:58.253Z,98.55
2023-02-01T03:09:35.820Z,102.50
2023-02-01T03:12:26.242Z,101.63
2023-02-01T03:15:02.082Z,100.75
2023-02-01T03:17:38.002Z,101.20
2023-02-01T03:20:09.101Z,98.88
2023-02-01T03:22:40.928Z,100.07
2023-02-01T03:25:14.814Z,99.47
2023-02-01T03:27:49.740Z,100.63
2023-02-01T03:30:23.559Z,98.10
2023-02-01T03:33:01.105Z,103.10
2023-02-01T03:35:35.806Z,100.20
2023-02-01T03:38:15.028Z,101.28
2023-02-01T03:40:45.835Z,99.15
2023-02-01T03:43:19.891Z,101.63
2023-02-01T03:45:54.677Z,101.55
2023-02-01T03:48:24.439Z,101.63
2023-02-01T03:50:57.521Z,102.93
2023-02-01T03:53:28.830Z,99.00
2023-02-01T03:55:57.785Z,102.68
2023-02-01T03:58:26.548Z,102.90
2023-02-01T04:00:57.388Z,102.03
2023-02-01T04:03:27.100Z,107.15
2023-02-01T04:05:56.479Z,101.45
2023-02-01T04:08:27.313Z,101.17
2023-02-01T04:10:55.718Z,103.63
2023-02-01T04:13:24.112Z,103.68
2023-02-01T04:15:52.494Z,101.05
2023-02-01T04:18:20.917Z,103.97
2023-02-01T04:20:49.369Z,106.43
2023-02-01T04:23:17.851Z,109.47
2023-02-01T04:25:47.687Z,101.75
2023-02-01T04:28:16.146Z,103.13
2023-02-01T04:30:44.772Z,102.45
2023-02-01T04:33:15.039Z,106.60
2023-02-01T04:35:43.531Z,104.50
2023-02-01T04:38:12.001Z,102.63
2023-02-01T04:40:40.407Z,100.43
2023-02-01T04:43:10.242Z,98.90
2023-02-01T04:45:38.681Z,99.68
2023-02-01T04:48:07.877Z,100.13
2023-02-01T04:50:36.308Z,96.88
2023-02-01T04:53:04.776Z,91.40
2023-02-01T04:55:33.378Z,91.07
2023-02-01T04:58:01.796Z,94.65
2023-02-01T05:00:31.734Z,91.13
2023-02-01T05:03:00.333Z,89.55
2023-02-01T05:05:29.714Z,89.68
2023-02-01T05:07:58.204Z,87.90
2023-02-01T05:10:26.681Z,92.80
2023-02-01T05:13:12.328Z,92.00
2023-02-01T05:15:42.165Z,88.00
2023-02-01T05:18:10.657Z,87.03
2023-02-01T05:20:39.147Z,86.53
2023-02-01T05:23:07.927Z,87.35
2023-02-01T05:25:36.383Z,89.38
2023-02-01T05:28:05.204Z,86.13
2023-02-01T05:30:36.202Z,84.22
2023-02-01T05:33:06.514Z,84.47
2023-02-01T05:35:34.972Z,85.05
2023-02-01T05:38:03.350Z,88.85
2023-02-01T05:40:31.815Z,84.05
2023-02-01T05:43:00.272Z,84.05
2023-02-01T05:45:28.827Z,82.72
2023-02-01T05:47:57.251Z,83.28
2023-02-01T05:50:27.146Z,83.67
2023-02-01T05:52:55.708Z,85.70
2023-02-01T05:55:24.103Z,82.85
2023-02-01T05:57:52.516Z,81.13
2023-02-01T06:00:22.629Z,81.93
2023-02-01T06:02:51.228Z,83.43
2023-02-01T06:05:19.662Z,80.97
2023-02-01T06:07:50.778Z,80.95
2023-02-01T06:10:20.513Z,81.93
2023-02-01T06:12:49.411Z,82.95
2023-02-01T06:15:19.368Z,82.13
2023-02-01T06:17:48.262Z,81.38
2023-02-01T06:20:19.075Z,83.05
2023-02-01T06:22:49.164Z,81.32
2023-02-01T06:25:18.154Z,81.28
2023-02-01T06:27:46.770Z,81.15
2023-02-01T06:30:16.438Z,88.75
2023-02-01T06:32:45.076Z,82.93
2023-02-01T06:35:17.153Z,83.10
2023-02-01T06:37:45.769Z,81.90
2023-02-01T06:40:16.305Z,82.70
2023-02-01T06:42:44.958Z,82.68
2023-02-01T06:45:13.618Z,83.90
2023-02-01T06:47:43.298Z,84.82
2023-02-01T06:50:12.786Z,82.97
2023-02-01T06:52:41.291Z,81.82
2023-02-01T06:55:10.633Z,83.13
2023-02-01T06:57:40.489Z,80.63
2023-02-01T07:00:11.014Z,83.57
2023-02-01T07:02:40.460Z,81.93
2023-02-01T07:05:09.689Z,81.15
2023-02-01T07:07:38.157Z,83.05
2023-02-01T07:10:07.734Z,82.20
2023-02-01T07:12:36.830Z,84.10
2023-02-01T07:15:08.846Z,81.35
2023-02-01T07:17:37.255Z,81.95
2023-02-01T07:20:07.147Z,81.07
2023-02-01T07:22:35.595Z,83.57
2023-02-01T07:25:06.503Z,82.93
2023-02-01T07:27:36.719Z,82.93
2023-02-01T07:30:08.204Z,84.43
2023-02-01T07:32:36.926Z,85.35
2023-02-01T07:35:06.272Z,87.90
2023-02-01T07:37:34.774Z,83.93
2023-02-01T07:40:03.266Z,85.57
2023-02-01T07:42:31.798Z,83.85
2023-02-01T07:45:14.795Z,82.87
2023-02-01T07:48:15.727Z,84.63
2023-02-01T07:50:44.356Z,85.20
2023-02-01T07:53:12.912Z,86.75
2023-02-01T07:55:41.912Z,89.22
2023-02-01T07:58:10.392Z,84.82
2023-02-01T08:00:56.295Z,83.95
2023-02-01T08:03:26.170Z,83.50
2023-02-01T08:05:56.974Z,85.57
2023-02-01T08:08:25.805Z,81.88
2023-02-01T08:10:59.785Z,88.40
2023-02-01T08:13:28.487Z,89.72
2023-02-01T08:16:00.762Z,88.93
2023-02-01T08:18:31.186Z,87.57
2023-02-01T08:20:59.698Z,90.47
2023-02-01T08:23:28.164Z,86.97
2023-02-01T08:25:56.576Z,86.22
2023-02-01T08:28:25.030Z,88.15
2023-02-01T08:30:53.554Z,87.83
2023-02-01T08:33:23.128Z,87.10
2023-02-01T08:35:53.018Z,89.40
2023-02-01T08:38:21.455Z,88.45
2023-02-01T08:40:49.881Z,89.78
2023-02-01T08:43:18.471Z,95.40
2023-02-01T08:45:47.311Z,87.90
2023-02-01T08:48:15.851Z,88.63
2023-02-01T08:50:44.855Z,87.07
2023-02-01T08:53:15.178Z,90.45
2023-02-01T08:55:43.646Z,88.70
2023-02-01T08:58:12.065Z,95.32
2023-02-01T09:00:40.500Z,95.50
2023-02-01T09:03:11.828Z,97.38
2023-02-01T09:05:49.119Z,95.00
2023-02-01T09:08:21.219Z,98.67
2023-02-01T09:10:49.625Z,96.70
2023-02-01T09:13:18.088Z,98.30
2023-02-01T09:15:47.054Z,95.43
2023-02-01T09:18:15.589Z,97.35
2023-02-01T09:20:44.123Z,93.57
2023-02-01T09:23:12.593Z,92.25
2023-02-01T09:25:42.605Z,89.20
2023-02-01T09:28:11.149Z,88.40
2023-02-01T09:30:40.145Z,90.27
2023-02-01T09:33:08.555Z,87.95
2023-02-01T09:35:37.090Z,89.17
2023-02-01T09:38:05.585Z,90.32
2023-02-01T09:40:36.427Z,88.47
2023-02-01T09:43:27.397Z,90.13
2023-02-01T09:46:07.358Z,96.80
2023-02-01T09:48:43.986Z,93.72
2023-02-01T09:51:19.058Z,97.88
2023-02-01T09:53:51.840Z,95.78
2023-02-01T09:56:27.641Z,95.32
2023-02-01T09:59:06.472Z,96.10
2023-02-01T10:01:35.431Z,97.28
2023-02-01T10:04:08.543Z,95.40
2023-02-01T10:07:01.405Z,97.88
2023-02-01T10:09:51.409Z,95.53
2023-02-01T10:13:04.388Z,92.95
2023-02-01T10:15:56.633Z,97.43
2023-02-01T10:18:53.569Z,94.53
2023-02-01T10:21:42.697Z,91.03
2023-02-01T10:24:43.930Z,91.72
2023-02-01T10:27:20.499Z,90.32
2023-02-01T10:29:56.508Z,92.97
2023-02-01T10:32:31.841Z,91.72
2023-02-01T10:35:02.907Z,92.32
2023-02-01T10:37:34.041Z,96.60
2023-02-01T10:40:11.513Z,100.97
2023-02-01T10:42:41.359Z,97.25
2023-02-01T10:45:15.601Z,100.80
2023-02-01T10:47:45.783Z,98.15
2023-02-01T10:50:27.602Z,99.82
2023-02-01T10:53:02.536Z,101.05
2023-02-01T10:55:49.104Z,99.25
2023-02-01T10:58:20.429Z,96.22
2023-02-01T11:00:54.730Z,100.78
2023-02-01T11:03:41.682Z,99.25
2023-02-01T11:06:30.531Z,102.30
2023-02-01T11:09:02.107Z,100.40
2023-02-01T11:11:30.633Z,119.95
2023-02-01T11:14:01.837Z,97.60
2023-02-01T11:16:38.556Z,101.93
2023-02-01T11:19:09.236Z,98.20
2023-02-01T11:21:39.546Z,100.82
2023-02-01T11:24:19.957Z,103.60
2023-02-01T11:26:48.869Z,104.07
2023-02-01T11:29:23.248Z,107.93
2023-02-01T11:31:53.010Z,104.13
2023-02-01T11:34:28.777Z,103.80
2023-02-01T11:37:04.440Z,101.35
2023-02-01T11:39:36.185Z,100.10
2023-02-01T11:42:14.126Z,97.72
2023-02-01T11:44:44.615Z,98.53
2023-02-01T11:47:23.260Z,98.88
2023-02-01T11:49:54.978Z,104.67
2023-02-01T11:52:50.076Z,99.28
2023-02-01T11:55:47.712Z,100.38
2023-02-01T11:58:39.195Z,100.43
2023-02-01T12:01:47.736Z,102.38
2023-02-01T12:05:02.237Z,99.30
2023-02-01T12:08:10.608Z,100.20
2023-02-01T12:10:54.610Z,96.43
2023-02-01T12:13:40.729Z,95.90
2023-02-01T12:16:23.682Z,92.20
2023-02-01T12:19:23.304Z,94.47
2023-02-01T12:22:03.645Z,92.22
2023-02-01T12:25:02.500Z,104.47
2023-02-01T12:28:04.981Z,93.07
2023-02-01T12:30:50.585Z,95.47
2023-02-01T12:33:32.966Z,92.15
2023-02-01T12:36:18.300Z,91.88
2023-02-01T12:38:57.509Z,95.05
2023-02-01T12:42:01.045Z,95.70
2023-02-01T12:44:45.398Z,95.82
2023-02-01T12:47:23.819Z,96.10
2023-02-01T12:49:59.772Z,99.97
2023-02-01T12:52:38.705Z,96.32
2023-02-01T12:55:19.231Z,96.13
2023-02-01T12:57:55.555Z,98.43
2023-02-01T13:00:39.095Z,94.82
2023-02-01T13:03:21.168Z,95.63
2023-02-01T13:05:56.412Z,92.68
2023-02-01T13:08:33.415Z,93.60
2023-02-01T13:11:07.919Z,95.45
2023-02-01T13:13:50.269Z,93.03
2023-02-01T13:16:28.228Z,90.32
2023-02-01T13:19:04.359Z,92.00
2023-02-01T13:21:37.785Z,90.63
2023-02-01T13:24:07.086Z,89.78
2023-02-01T13:26:35.574Z,89.47
2023-02-01T13:29:09.184Z,86.05
2023-02-01T13:32:01.656Z,85.67
2023-02-01T13:35:05.813Z,85.28
2023-02-01T13:38:05.852Z,86.57
2023-02-01T13:40:41.800Z,85.43
2023-02-01T13:43:21.417Z,85.53
2023-02-01T13:45:54.758Z,84.65
2023-02-01T13:48:31.734Z,84.10
2023-02-01T13:51:01.778Z,85.55
2023-02-01T13:53:34.125Z,86.50
2023-02-01T13:56:07.332Z,86.63
2023-02-01T13:58:38.749Z,83.35
2023-02-01T14:01:38.188Z,86.00
2023-02-01T14:04:28.232Z,87.45
2023-02-01T14:06:59.022Z,88.32
2023-02-01T14:09:38.187Z,86.70
2023-02-01T14:12:45.995Z,87.32
2023-02-01T14:15:26.748Z,88.15
2023-02-01T14:17:57.361Z,85.40
2023-02-01T14:20:52.011Z,84.43
2023-02-01T14:23:28.891Z,85.85
2023-02-01T14:26:17.802Z,86.85
2023-02-01T14:29:08.580Z,86.32
2023-02-01T14:31:57.971Z,87.40
2023-02-01T14:34:44.348Z,88.13
2023-02-01T14:37:25.926Z,86.47
2023-02-01T14:40:03.218Z,89.55
2023-02-01T14:42:41.261Z,89.03
2023-02-01T14:45:52.399Z,87.72
2023-02-01T14:48:48.466Z,83.82
2023-02-01T14:51:21.268Z,85.20
2023-02-01T14:53:50.476Z,84.38
2023-02-01T14:56:23.008Z,82.40
2023-02-01T14:58:59.258Z,84.50
2023-02-01T15:01:31.620Z,83.35
2023-02-01T15:04:06.802Z,81.90
2023-02-01T15:06:41.409Z,83.30
2023-02-01T15:09:16.507Z,83.88
2023-02-01T15:12:00.601Z,83.28
2023-02-01T15:14:31.113Z,85.10
2023-02-01T15:16:59.657Z,84.13
2023-02-01T15:19:31.519Z,83.22
2023-02-01T15:22:02.258Z,83.78
2023-02-01T15:24:33.068Z,86.27
2023-02-01T15:27:07.425Z,87.57
2023-02-01T15:29:36.610Z,86.15
2023-02-01T15:32:07.170Z,87.45
2023-02-01T15:34:49.511Z,89.37
2023-02-01T15:37:21.096Z,86.90
2023-02-01T15:40:23.028Z,88.55
2023-02-01T15:42:56.310Z,92.87
2023-02-01T15:45:29.305Z,91.88
2023-02-01T15:48:00.508Z,88.35
2023-02-01T15:50:35.468Z,88.30
2023-02-01T15:53:06.553Z,87.78
2023-02-01T15:55:43.029Z,86.63
2023-02-01T15:58:22.774Z,86.07
2023-02-01T16:00:55.077Z,89.50
2023-02-01T16:03:35.963Z,86.47
2023-02-01T16:06:07.241Z,86.93
2023-02-01T16:08:38.578Z,88.00
2023-02-01T16:11:32.568Z,87.43
2023-02-01T16:14:02.452Z,91.60
2023-02-01T16:16:31.908Z,88.10
2023-02-01T16:19:00.589Z,92.72
2023-02-01T16:21:29.060Z,89.72
2023-02-01T16:24:00.522Z,90.05
2023-02-01T16:26:29.086Z,89.78
2023-02-01T16:28:57.639Z,92.43
2023-02-01T16:31:30.630Z,88.72
2023-02-01T16:33:59.453Z,94.07
2023-02-01T16:36:29.358Z,91.43
2023-02-01T16:38:59.330Z,90.90
2023-02-01T16:41:29.032Z,92.50
2023-02-01T16:43:58.278Z,96.78
2023-02-01T16:46:32.602Z,91.00
2023-02-01T16:49:02.137Z,97.10
2023-02-01T16:51:33.961Z,91.72
2023-02-01T16:54:04.091Z,92.72
2023-02-01T16:56:36.743Z,91.05
2023-02-01T16:59:06.067Z,96.22
2023-02-01T17:01:34.707Z,95.35
2023-02-01T17:04:03.501Z,92.10
2023-02-01T17:06:33.980Z,97.00
2023-02-01T17:09:04.808Z,93.13
2023-02-01T17:11:34.098Z,91.82
2023-02-01T17:14:16.336Z,91.07
2023-02-01T17:16:46.321Z,93.57
2023-02-01T17:19:19.155Z,99.35
2023-02-01T17:21:52.488Z,98.28
2023-02-01T17:24:30.744Z,95.82
2023-02-01T17:27:05.250Z,98.28
2023-02-01T17:29:33.663Z,101.15
2023-02-01T17:32:02.744Z,98.97
2023-02-01T17:34:32.638Z,97.88
2023-02-01T17:37:01.221Z,97.57
2023-02-01T17:39:48.545Z,94.90
2023-02-01T17:42:16.948Z,97.63
2023-02-01T17:44:45.427Z,96.95
2023-02-01T17:47:14.085Z,97.18
2023-02-01T17:49:42.615Z,98.43
2023-02-01T17:52:16.367Z,98.43
2023-02-01T17:54:47.787Z,98.53
2023-02-01T17:57:16.989Z,98.63
2023-02-01T17:59:45.712Z,98.53
2023-02-01T18:02:21.237Z,105.88
2023-02-01T18:04:50.476Z,100.38
2023-02-01T18:07:19.094Z,97.13
2023-02-01T18:09:48.958Z,96.90
2023-02-01T18:12:23.144Z,102.50
2023-02-01T18:14:51.706Z,98.32
2023-02-01T18:17:20.252Z,101.47
2023-02-01T18:19:48.685Z,98.80
2023-02-01T18:22:20.141Z,98.07
2023-02-01T18:24:50.077Z,99.65
2023-02-01T18:27:18.603Z,101.95
2023-02-01T18:29:47.109Z,95.70
2023-02-01T18:32:15.706Z,99.63
2023-02-01T18:34:44.333Z,104.57
2023-02-01T18:37:12.824Z,99.93
2023-02-01T18:39:41.363Z,102.65
2023-02-01T18:42:12.451Z,102.60
2023-02-01T18:44:40.996Z,104.47
2023-02-01T18:47:09.825Z,106.88
2023-02-01T18:49:38.449Z,99.93
2023-02-01T18:52:07.665Z,101.80
2023-02-01T18:54:36.963Z,102.28
2023-02-01T18:57:06.658Z,99.32
2023-02-01T18:59:36.982Z,104.57
2023-02-01T19:02:06.051Z,103.85
2023-02-01T19:04:35.009Z,98.97
2023-02-01T19:07:06.415Z,99.07
2023-02-01T19:09:36.341Z,116.80
2023-02-01T19:12:05.126Z,102.43
2023-02-01T19:14:35.069Z,102.03
2023-02-01T19:17:03.617Z,101.60
2023-02-01T19:19:32.726Z,103.07
2023-02-01T19:22:02.270Z,103.30
2023-02-01T19:24:31.627Z,104.95
2023-02-01T19:27:01.140Z,98.68
2023-02-01T19:29:32.439Z,104.82
2023-02-01T19:32:02.887Z,101.13
2023-02-01T19:34:33.111Z,103.55
2023-02-01T19:37:02.374Z,102.05
2023-02-01T19:39:31.437Z,101.80
2023-02-01T19:42:00.815Z,98.07
2023-02-01T19:44:30.412Z,99.20
2023-02-01T19:46:59.005Z,103.15
2023-02-01T19:49:29.607Z,97.50
2023-02-01T19:51:58.241Z,103.43
2023-02-01T19:54:26.889Z,96.90
2023-02-01T19:56:58.343Z,96.80
2023-02-01T19:59:27.216Z,96.03
2023-02-01T20:01:55.034Z,97.82
2023-02-01T20:04:26.325Z,99.05
2023-02-01T20:06:56.368Z,93.57
2023-02-01T20:09:28.127Z,93.35
2023-02-01T20:11:56.928Z,91.72
2023-02-01T20:14:27.320Z,97.15
2023-02-01T20:16:55.881Z,91.77
2023-02-01T20:19:24.483Z,93.67
2023-02-01T20:21:53.258Z,92.78
2023-02-01T20:24:23.211Z,94.57
2023-02-01T20:26:52.697Z,92.45
2023-02-01T20:29:22.907Z,92.07
2023-02-01T20:31:51.573Z,92.93
2023-02-01T20:34:20.481Z,92.35
2023-02-01T20:36:48.954Z,95.22
2023-02-01T20:39:17.694Z,93.95
2023-02-01T20:41:47.596Z,93.00
2023-02-01T20:44:16.303Z,92.43
2023-02-01T20:46:46.033Z,99.43
2023-02-01T20:49:14.609Z,92.83
2023-02-01T20:51:43.228Z,99.95
2023-02-01T20:54:11.675Z,95.00
2023-02-01T20:56:40.548Z,93.68
2023-02-01T20:59:12.570Z,91.45
2023-02-01T21:01:52.923Z,94.13
2023-02-01T21:04:23.213Z,94.85
2023-02-01T21:06:51.931Z,92.70
2023-02-01T21:09:20.513Z,97.18
2023-02-01T21:11:48.955Z,95.93
2023-02-01T21:14:19.141Z,93.20
2023-02-01T21:16:47.603Z,92.55
2023-02-01T21:19:16.218Z,92.97
2023-02-01T21:21:44.783Z,130.88
2023-02-01T21:24:13.448Z,99.25
2023-02-01T21:26:42.116Z,100.22
2023-02-01T21:29:13.159Z,94.07
2023-02-01T21:31:43.999Z,93.60
2023-02-01T21:34:12.677Z,96.93
2023-02-01T21:36:41.141Z,95.97
2023-02-01T21:39:12.176Z,97.95
2023-02-01T21:41:58.343Z,92.95
2023-02-01T21:44:26.883Z,94.78
2023-02-01T21:46:56.970Z,100.53
2023-02-01T21:49:27.606Z,98.70
2023-02-01T21:51:56.535Z,98.25
2023-02-01T21:54:24.980Z,100.97
2023-02-01T21:56:53.544Z,102.13
2023-02-01T21:59:22.038Z,99.05
2023-02-01T22:01:50.492Z,99.32
2023-02-01T22:04:20.463Z,97.88
2023-02-01T22:06:48.879Z,96.10
2023-02-01T22:09:20.983Z,97.15
2023-02-01T22:11:50.132Z,99.82
2023-02-01T22:14:19.142Z,101.70
2023-02-01T22:16:48.424Z,95.35
2023-02-01T22:19:17.891Z,99.85
2023-02-01T22:21:49.684Z,92.47
2023-02-01T22:24:21.431Z,94.80
2023-02-01T22:26:50.619Z,110.55
2023-02-01T22:29:20.348Z,99.85
2023-02-01T22:31:49.322Z,98.05
2023-02-01T22:34:17.992Z,100.82
2023-02-01T22:36:49.085Z,98.05
2023-02-01T22:39:17.538Z,97.67
2023-02-01T22:41:46.005Z,98.13
2023-02-01T22:44:14.452Z,96.55
2023-02-01T22:46:42.932Z,98.82
2023-02-01T22:49:11.711Z,94.97
2023-02-01T22:51:40.422Z,96.47
2023-02-01T22:54:16.431Z,95.35
2023-02-01T22:56:44.884Z,109.30
2023-02-01T22:59:14.865Z,123.60
2023-02-01T23:01:43.813Z,99.68
2023-02-01T23:04:14.515Z,105.25
2023-02-01T23:06:43.201Z,96.80
2023-02-01T23:09:18.382Z,98.60
2023-02-01T23:11:47.330Z,94.22
2023-02-01T23:14:17.272Z,102.75
2023-02-01T23:16:47.180Z,103.85
2023-02-01T23:19:15.964Z,103.53
2023-02-01T23:21:44.405Z,97.90
2023-02-01T23:24:14.559Z,98.25
2023-02-01T23:26:43.098Z,100.40
2023-02-01T23:29:19.264Z,102.55
2023-02-01T23:31:47.873Z,100.38
2023-02-01T23:34:16.487Z,110.07
2023-02-01T23:36:44.994Z,104.13
2023-02-01T23:39:14.864Z,102.22
2023-02-01T23:41:43.401Z,104.43
2023-02-01T23:44:11.984Z,99.95
2023-02-01T23:46:44.650Z,104.20
2023-02-01T23:49:13.205Z,98.35
2023-02-01T23:51:42.505Z,99.45
2023-02-01T23:54:12.981Z,108.88
2023-02-01T23:56:44.885Z,100.93
2023-02-01T23:59:16.435Z,97.00
